sensor_id;sensor_type;location;lat;lon;timestamp;temperature;humidity
19232;DHT22;9750;48.730;10.294;2023-02-19T00:01:00;10.20;99.90
19232;DHT22;9750;48.730;10.294;2023-02-19T00:03:29;10.20;99.90
19232;DHT22;9750;48.730;10.294;2023-02-19T00:05:56;10.20;99.90
19232;DHT22;9750;48.730;10.294;2023-02-19T00:08:28;10.20;99.90
19232;DHT22;9750;48.730;10.294;2023-02-19T00:10:59;10.20;99.90
19232;DHT22;9750;48.730;10.294;2023-02-19T00:13:27;10.20;99.90
19232;DHT22;9750;48.730;10.294;2023-02-19T00:15:54;10.10;99.90
19232;DHT22;9750;48.730;10.294;2023-02-19T00:18:23;10.20;99.90
19232;DHT22;9750;48.730;10.294;2023-02-19T00:20:50;10.20;99.90
19232;DHT22;9750;48.730;10.294;2023-02-19T00:23:18;10.20;99.90
19232;DHT22;9750;48.730;10.294;2023-02-19T00:25:45;10.20;99.90
19232;DHT22;9750;48.730;10.294;2023-02-19T00:28:12;10.20;99.90
19232;DHT22;9750;48.730;10.294;2023-02-19T00:30:39;10.20;99.90
19232;DHT22;9750;48.730;10.294;2023-02-19T00:33:07;10.10;99.90
19232;DHT22;9750;48.730;10.294;2023-02-19T00:35:35;10.10;99.90
19232;DHT22;9750;48.730;10.294;2023-02-19T00:38:03;10.10;99.90
19232;DHT22;9750;48.730;10.294;2023-02-19T00:40:30;10.10;99.90
19232;DHT22;9750;48.730;10.294;2023-02-19T00:42:57;10.10;99.90
19232;DHT22;9750;48.730;10.294;2023-02-19T00:45:25;10.10;99.90
19232;DHT22;9750;48.730;10.294;2023-02-19T00:47:52;10.00;99.90
19232;DHT22;9750;48.730;10.294;2023-02-19T00:50:20;10.00;99.90
19232;DHT22;9750;48.730;10.294;2023-02-19T00:52:49;10.00;99.90
19232;DHT22;9750;48.730;10.294;2023-02-19T00:55:16;10.00;99.90
19232;DHT22;9750;48.730;10.294;2023-02-19T00:57:43;10.00;99.90
19232;DHT22;9750;48.730;10.294;2023-02-19T01:00:11;10.00;99.90
19232;DHT22;9750;48.730;10.294;2023-02-19T01:02:39;10.00;99.90
19232;DHT22;9750;48.730;10.294;2023-02-19T01:05:06;10.00;99.90
19232;DHT22;9750;48.730;10.294;2023-02-19T01:07:35;10.00;99.90
19232;DHT22;9750;48.730;10.294;2023-02-19T01:10:04;10.00;99.90
19232;DHT22;9750;48.730;10.294;2023-02-19T01:12:31;10.00;99.90
19232;DHT22;9750;48.730;10.294;2023-02-19T01:14:59;10.00;99.90
19232;DHT22;9750;48.730;10.294;2023-02-19T01:17:26;10.00;99.90
19232;DHT22;9750;48.730;10.294;2023-02-19T01:19:53;10.00;99.90
19232;DHT22;9750;48.730;10.294;2023-02-19T01:22:21;10.00;99.90
19232;DHT22;9750;48.730;10.294;2023-02-19T01:24:48;10.00;99.90
19232;DHT22;9750;48.730;10.294;2023-02-19T01:27:16;10.00;99.90
19232;DHT22;9750;48.730;10.294;2023-02-19T01:29:44;10.00;99.90
19232;DHT22;9750;48.730;10.294;2023-02-19T01:32:11;10.00;99.90
19232;DHT22;9750;48.730;10.294;2023-02-19T01:34:38;10.00;99.90
19232;DHT22;9750;48.730;10.294;2023-02-19T01:37:13;10.00;99.90
19232;DHT22;9750;48.730;10.294;2023-02-19T01:39:41;10.00;99.90
19232;DHT22;9750;48.730;10.294;2023-02-19T01:42:12;10.00;99.90
19232;DHT22;9750;48.730;10.294;2023-02-19T01:47:45;10.00;99.90
19232;DHT22;9750;48.730;10.294;2023-02-19T01:50:13;10.00;99.90
19232;DHT22;9750;48.730;10.294;2023-02-19T01:52:41;10.00;99.90
19232;DHT22;9750;48.730;10.294;2023-02-19T01:55:10;10.00;99.90
19232;DHT22;9750;48.730;10.294;2023-02-19T01:57:41;10.00;99.90
19232;DHT22;9750;48.730;10.294;2023-02-19T02:00:13;10.00;99.90
19232;DHT22;9750;48.730;10.294;2023-02-19T02:02:45;10.00;99.90
19232;DHT22;9750;48.730;10.294;2023-02-19T02:05:18;9.90;99.90
19232;DHT22;9750;48.730;10.294;2023-02-19T02:07:49;9.90;99.90
19232;DHT22;9750;48.730;10.294;2023-02-19T02:10:33;9.90;99.90
19232;DHT22;9750;48.730;10.294;2023-02-19T02:13:01;9.90;99.90
19232;DHT22;9750;48.730;10.294;2023-02-19T02:15:35;9.80;99.90
19232;DHT22;9750;48.730;10.294;2023-02-19T02:18:14;9.90;99.90
19232;DHT22;9750;48.730;10.294;2023-02-19T02:20:57;9.80;99.90
19232;DHT22;9750;48.730;10.294;2023-02-19T02:23:39;9.80;99.90
19232;DHT22;9750;48.730;10.294;2023-02-19T02:26:29;9.80;99.90
19232;DHT22;9750;48.730;10.294;2023-02-19T02:32:10;9.80;99.90
19232;DHT22;9750;48.730;10.294;2023-02-19T02:34:44;9.90;99.90
19232;DHT22;9750;48.730;10.294;2023-02-19T02:37:14;9.90;99.90
19232;DHT22;9750;48.730;10.294;2023-02-19T02:39:43;9.90;99.90
19232;DHT22;9750;48.730;10.294;2023-02-19T02:42:12;9.90;99.90
19232;DHT22;9750;48.730;10.294;2023-02-19T02:44:55;9.90;99.90
19232;DHT22;9750;48.730;10.294;2023-02-19T02:47:42;9.90;99.90
19232;DHT22;9750;48.730;10.294;2023-02-19T02:50:13;9.90;99.90
19232;DHT22;9750;48.730;10.294;2023-02-19T02:52:44;9.80;99.90
19232;DHT22;9750;48.730;10.294;2023-02-19T02:55:39;9.80;99.90
19232;DHT22;9750;48.730;10.294;2023-02-19T02:58:09;9.80;99.90
19232;DHT22;9750;48.730;10.294;2023-02-19T03:00:38;9.80;99.90
19232;DHT22;9750;48.730;10.294;2023-02-19T03:03:29;9.80;99.90
19232;DHT22;9750;48.730;10.294;2023-02-19T03:06:01;9.80;99.90
19232;DHT22;9750;48.730;10.294;2023-02-19T03:08:30;9.80;99.90
19232;DHT22;9750;48.730;10.294;2023-02-19T03:11:04;9.80;99.90
19232;DHT22;9750;48.730;10.294;2023-02-19T03:13:46;9.80;99.90
19232;DHT22;9750;48.730;10.294;2023-02-19T03:16:33;9.70;99.90
19232;DHT22;9750;48.730;10.294;2023-02-19T03:19:24;9.70;99.90
19232;DHT22;9750;48.730;10.294;2023-02-19T03:21:54;9.70;99.90
19232;DHT22;9750;48.730;10.294;2023-02-19T03:24:26;9.70;99.90
19232;DHT22;9750;48.730;10.294;2023-02-19T03:27:18;9.70;99.90
19232;DHT22;9750;48.730;10.294;2023-02-19T03:29:48;9.80;99.90
19232;DHT22;9750;48.730;10.294;2023-02-19T03:32:20;9.70;99.90
19232;DHT22;9750;48.730;10.294;2023-02-19T03:34:54;9.70;99.90
19232;DHT22;9750;48.730;10.294;2023-02-19T03:37:25;9.70;99.90
19232;DHT22;9750;48.730;10.294;2023-02-19T03:39:55;9.70;99.90
19232;DHT22;9750;48.730;10.294;2023-02-19T03:42:30;9.70;99.90
19232;DHT22;9750;48.730;10.294;2023-02-19T03:45:24;9.70;99.90
19232;DHT22;9750;48.730;10.294;2023-02-19T03:47:57;9.70;99.90
19232;DHT22;9750;48.730;10.294;2023-02-19T03:50:35;9.70;99.90
19232;DHT22;9750;48.730;10.294;2023-02-19T03:53:13;9.60;99.90
19232;DHT22;9750;48.730;10.294;2023-02-19T03:55:49;9.70;99.90
19232;DHT22;9750;48.730;10.294;2023-02-19T03:58:23;9.70;99.90
19232;DHT22;9750;48.730;10.294;2023-02-19T04:00:55;9.60;99.90
19232;DHT22;9750;48.730;10.294;2023-02-19T04:03:27;9.60;99.90
19232;DHT22;9750;48.730;10.294;2023-02-19T04:06:01;9.60;99.90
19232;DHT22;9750;48.730;10.294;2023-02-19T04:08:30;9.70;99.90
19232;DHT22;9750;48.730;10.294;2023-02-19T04:11:01;9.60;99.90
19232;DHT22;9750;48.730;10.294;2023-02-19T04:13:30;9.60;99.90
19232;DHT22;9750;48.730;10.294;2023-02-19T04:16:02;9.60;99.90
19232;DHT22;9750;48.730;10.294;2023-02-19T04:18:35;9.60;99.90
19232;DHT22;9750;48.730;10.294;2023-02-19T04:21:06;9.60;99.90
19232;DHT22;9750;48.730;10.294;2023-02-19T04:23:38;9.60;99.90
19232;DHT22;9750;48.730;10.294;2023-02-19T04:26:07;9.60;99.90
19232;DHT22;9750;48.730;10.294;2023-02-19T04:28:35;9.60;99.90
19232;DHT22;9750;48.730;10.294;2023-02-19T04:31:04;9.60;99.90
19232;DHT22;9750;48.730;10.294;2023-02-19T04:33:31;9.50;99.90
19232;DHT22;9750;48.730;10.294;2023-02-19T04:35:58;9.50;99.90
19232;DHT22;9750;48.730;10.294;2023-02-19T04:38:27;9.50;99.90
19232;DHT22;9750;48.730;10.294;2023-02-19T04:40:54;9.40;99.90
19232;DHT22;9750;48.730;10.294;2023-02-19T04:43:22;9.40;99.90
19232;DHT22;9750;48.730;10.294;2023-02-19T04:45:49;9.40;99.90
19232;DHT22;9750;48.730;10.294;2023-02-19T04:48:16;9.40;99.90
19232;DHT22;9750;48.730;10.294;2023-02-19T04:50:43;9.30;99.90
19232;DHT22;9750;48.730;10.294;2023-02-19T04:53:10;9.30;99.90
19232;DHT22;9750;48.730;10.294;2023-02-19T04:55:39;9.30;99.90
19232;DHT22;9750;48.730;10.294;2023-02-19T04:58:06;9.20;99.90
19232;DHT22;9750;48.730;10.294;2023-02-19T05:00:34;9.20;99.90
19232;DHT22;9750;48.730;10.294;2023-02-19T05:03:01;9.20;99.90
19232;DHT22;9750;48.730;10.294;2023-02-19T05:05:28;9.20;99.90
19232;DHT22;9750;48.730;10.294;2023-02-19T05:07:55;9.20;99.90
19232;DHT22;9750;48.730;10.294;2023-02-19T05:10:22;9.20;99.90
19232;DHT22;9750;48.730;10.294;2023-02-19T05:12:51;9.20;99.90
19232;DHT22;9750;48.730;10.294;2023-02-19T05:15:20;9.10;99.90
19232;DHT22;9750;48.730;10.294;2023-02-19T05:17:47;9.10;99.90
19232;DHT22;9750;48.730;10.294;2023-02-19T05:20:15;9.10;99.90
19232;DHT22;9750;48.730;10.294;2023-02-19T05:22:42;9.00;99.90
19232;DHT22;9750;48.730;10.294;2023-02-19T05:25:09;9.00;99.90
19232;DHT22;9750;48.730;10.294;2023-02-19T05:27:36;9.00;99.90
19232;DHT22;9750;48.730;10.294;2023-02-19T05:30:06;9.00;99.90
19232;DHT22;9750;48.730;10.294;2023-02-19T05:32:34;9.10;99.90
19232;DHT22;9750;48.730;10.294;2023-02-19T05:35:01;9.00;99.90
19232;DHT22;9750;48.730;10.294;2023-02-19T05:37:29;9.10;99.90
19232;DHT22;9750;48.730;10.294;2023-02-19T05:39:56;9.00;99.90
19232;DHT22;9750;48.730;10.294;2023-02-19T05:42:23;9.10;99.90
19232;DHT22;9750;48.730;10.294;2023-02-19T05:44:51;9.10;99.90
19232;DHT22;9750;48.730;10.294;2023-02-19T05:47:19;9.00;99.90
19232;DHT22;9750;48.730;10.294;2023-02-19T05:49:46;9.00;99.90
19232;DHT22;9750;48.730;10.294;2023-02-19T05:52:14;8.90;99.90
19232;DHT22;9750;48.730;10.294;2023-02-19T05:54:41;8.90;99.90
19232;DHT22;9750;48.730;10.294;2023-02-19T05:57:08;8.90;99.90
19232;DHT22;9750;48.730;10.294;2023-02-19T05:59:36;8.90;99.90
19232;DHT22;9750;48.730;10.294;2023-02-19T06:02:03;8.90;99.90
19232;DHT22;9750;48.730;10.294;2023-02-19T06:04:32;9.00;99.90
19232;DHT22;9750;48.730;10.294;2023-02-19T06:06:59;8.90;99.90
19232;DHT22;9750;48.730;10.294;2023-02-19T06:09:26;8.90;99.90
19232;DHT22;9750;48.730;10.294;2023-02-19T06:11:54;8.80;99.90
19232;DHT22;9750;48.730;10.294;2023-02-19T06:14:21;8.70;99.90
19232;DHT22;9750;48.730;10.294;2023-02-19T06:20:12;8.40;99.90
19232;DHT22;9750;48.730;10.294;2023-02-19T06:22:39;8.30;99.90
19232;DHT22;9750;48.730;10.294;2023-02-19T06:25:07;8.30;99.90
19232;DHT22;9750;48.730;10.294;2023-02-19T06:27:37;8.30;99.90
19232;DHT22;9750;48.730;10.294;2023-02-19T06:30:05;8.30;99.90
19232;DHT22;9750;48.730;10.294;2023-02-19T06:32:33;8.30;99.90
19232;DHT22;9750;48.730;10.294;2023-02-19T06:35:00;8.30;99.90
19232;DHT22;9750;48.730;10.294;2023-02-19T06:37:29;8.20;99.90
19232;DHT22;9750;48.730;10.294;2023-02-19T06:39:56;8.20;99.90
19232;DHT22;9750;48.730;10.294;2023-02-19T06:42:23;8.20;99.90
19232;DHT22;9750;48.730;10.294;2023-02-19T06:44:51;8.20;99.90
19232;DHT22;9750;48.730;10.294;2023-02-19T06:47:22;8.20;99.90
19232;DHT22;9750;48.730;10.294;2023-02-19T06:49:49;8.30;99.90
19232;DHT22;9750;48.730;10.294;2023-02-19T06:52:16;8.30;99.90
19232;DHT22;9750;48.730;10.294;2023-02-19T06:54:45;8.30;99.90
19232;DHT22;9750;48.730;10.294;2023-02-19T06:57:12;8.30;99.90
19232;DHT22;9750;48.730;10.294;2023-02-19T06:59:39;8.30;99.90
19232;DHT22;9750;48.730;10.294;2023-02-19T07:02:10;8.30;99.90
19232;DHT22;9750;48.730;10.294;2023-02-19T07:04:37;8.30;99.90
19232;DHT22;9750;48.730;10.294;2023-02-19T07:07:05;8.30;99.90
19232;DHT22;9750;48.730;10.294;2023-02-19T07:09:32;8.30;99.90
19232;DHT22;9750;48.730;10.294;2023-02-19T07:12:01;8.40;99.90
19232;DHT22;9750;48.730;10.294;2023-02-19T07:14:28;8.30;99.90
19232;DHT22;9750;48.730;10.294;2023-02-19T07:16:55;8.40;99.90
19232;DHT22;9750;48.730;10.294;2023-02-19T07:19:22;8.40;99.90
19232;DHT22;9750;48.730;10.294;2023-02-19T07:21:50;8.50;99.90
19232;DHT22;9750;48.730;10.294;2023-02-19T07:24:17;8.40;99.90
19232;DHT22;9750;48.730;10.294;2023-02-19T07:27:00;8.50;99.90
19232;DHT22;9750;48.730;10.294;2023-02-19T07:29:27;8.50;99.90
19232;DHT22;9750;48.730;10.294;2023-02-19T07:31:54;8.50;99.90
19232;DHT22;9750;48.730;10.294;2023-02-19T07:34:21;8.60;99.90
19232;DHT22;9750;48.730;10.294;2023-02-19T07:36:49;8.50;99.90
19232;DHT22;9750;48.730;10.294;2023-02-19T07:39:17;8.50;99.90
19232;DHT22;9750;48.730;10.294;2023-02-19T07:41:44;8.50;99.90
19232;DHT22;9750;48.730;10.294;2023-02-19T07:44:13;8.60;99.90
19232;DHT22;9750;48.730;10.294;2023-02-19T07:46:42;8.60;99.90
19232;DHT22;9750;48.730;10.294;2023-02-19T07:49:09;8.60;99.90
19232;DHT22;9750;48.730;10.294;2023-02-19T07:51:36;8.70;99.90
19232;DHT22;9750;48.730;10.294;2023-02-19T07:54:04;8.70;99.90
19232;DHT22;9750;48.730;10.294;2023-02-19T07:56:32;8.70;99.90
19232;DHT22;9750;48.730;10.294;2023-02-19T07:58:59;8.70;99.90
19232;DHT22;9750;48.730;10.294;2023-02-19T08:01:28;8.70;99.90
19232;DHT22;9750;48.730;10.294;2023-02-19T08:04:10;8.70;99.90
19232;DHT22;9750;48.730;10.294;2023-02-19T08:06:38;8.70;99.90
19232;DHT22;9750;48.730;10.294;2023-02-19T08:09:05;8.70;99.90
19232;DHT22;9750;48.730;10.294;2023-02-19T08:11:33;8.80;99.90
19232;DHT22;9750;48.730;10.294;2023-02-19T08:14:17;8.80;99.90
19232;DHT22;9750;48.730;10.294;2023-02-19T08:16:49;8.80;99.90
19232;DHT22;9750;48.730;10.294;2023-02-19T08:19:17;8.80;99.90
19232;DHT22;9750;48.730;10.294;2023-02-19T08:21:44;8.80;99.90
19232;DHT22;9750;48.730;10.294;2023-02-19T08:24:11;8.90;99.90
19232;DHT22;9750;48.730;10.294;2023-02-19T08:26:39;8.90;99.90
19232;DHT22;9750;48.730;10.294;2023-02-19T08:29:06;8.90;99.90
19232;DHT22;9750;48.730;10.294;2023-02-19T08:31:34;9.00;99.90
19232;DHT22;9750;48.730;10.294;2023-02-19T08:34:03;8.90;99.90
19232;DHT22;9750;48.730;10.294;2023-02-19T08:36:31;9.00;99.90
19232;DHT22;9750;48.730;10.294;2023-02-19T08:38:58;9.00;99.90
19232;DHT22;9750;48.730;10.294;2023-02-19T08:41:25;9.00;99.90
19232;DHT22;9750;48.730;10.294;2023-02-19T08:43:52;9.10;99.90
19232;DHT22;9750;48.730;10.294;2023-02-19T08:46:20;9.10;99.90
19232;DHT22;9750;48.730;10.294;2023-02-19T08:48:47;9.10;99.90
19232;DHT22;9750;48.730;10.294;2023-02-19T08:51:16;9.20;99.90
19232;DHT22;9750;48.730;10.294;2023-02-19T08:53:43;9.20;99.90
19232;DHT22;9750;48.730;10.294;2023-02-19T08:56:12;9.20;99.90
19232;DHT22;9750;48.730;10.294;2023-02-19T08:58:40;9.20;99.90
19232;DHT22;9750;48.730;10.294;2023-02-19T09:01:08;9.10;99.90
19232;DHT22;9750;48.730;10.294;2023-02-19T09:03:36;9.10;99.90
19232;DHT22;9750;48.730;10.294;2023-02-19T09:06:27;9.20;99.90
19232;DHT22;9750;48.730;10.294;2023-02-19T09:08:58;9.20;99.90
19232;DHT22;9750;48.730;10.294;2023-02-19T09:11:26;9.20;99.90
19232;DHT22;9750;48.730;10.294;2023-02-19T09:13:55;9.30;99.90
19232;DHT22;9750;48.730;10.294;2023-02-19T09:16:22;9.40;99.90
19232;DHT22;9750;48.730;10.294;2023-02-19T09:18:49;9.40;99.90
19232;DHT22;9750;48.730;10.294;2023-02-19T09:21:17;9.30;99.90
19232;DHT22;9750;48.730;10.294;2023-02-19T09:23:44;9.30;99.90
19232;DHT22;9750;48.730;10.294;2023-02-19T09:26:13;9.30;99.90
19232;DHT22;9750;48.730;10.294;2023-02-19T09:28:40;9.40;99.90
19232;DHT22;9750;48.730;10.294;2023-02-19T09:31:09;9.40;99.90
19232;DHT22;9750;48.730;10.294;2023-02-19T09:33:36;9.50;99.90
19232;DHT22;9750;48.730;10.294;2023-02-19T09:36:04;9.50;99.90
19232;DHT22;9750;48.730;10.294;2023-02-19T09:38:32;9.60;99.90
19232;DHT22;9750;48.730;10.294;2023-02-19T09:41:05;9.50;99.90
19232;DHT22;9750;48.730;10.294;2023-02-19T09:43:36;9.60;99.90
19232;DHT22;9750;48.730;10.294;2023-02-19T09:46:08;9.70;99.90
19232;DHT22;9750;48.730;10.294;2023-02-19T09:52:05;9.70;99.80
19232;DHT22;9750;48.730;10.294;2023-02-19T09:54:33;9.70;99.90
19232;DHT22;9750;48.730;10.294;2023-02-19T09:57:03;9.70;99.50
19232;DHT22;9750;48.730;10.294;2023-02-19T09:59:38;9.70;99.80
19232;DHT22;9750;48.730;10.294;2023-02-19T10:02:12;9.80;99.90
19232;DHT22;9750;48.730;10.294;2023-02-19T10:04:43;9.80;99.80
19232;DHT22;9750;48.730;10.294;2023-02-19T10:07:12;9.90;99.60
19232;DHT22;9750;48.730;10.294;2023-02-19T10:09:40;9.90;99.30
19232;DHT22;9750;48.730;10.294;2023-02-19T10:12:15;9.90;99.10
19232;DHT22;9750;48.730;10.294;2023-02-19T10:14:47;9.90;99.70
19232;DHT22;9750;48.730;10.294;2023-02-19T10:17:21;10.00;99.90
19232;DHT22;9750;48.730;10.294;2023-02-19T10:19:49;10.20;99.90
19232;DHT22;9750;48.730;10.294;2023-02-19T10:22:17;10.10;99.30
19232;DHT22;9750;48.730;10.294;2023-02-19T10:24:45;10.10;99.40
19232;DHT22;9750;48.730;10.294;2023-02-19T10:27:16;10.10;99.10
19232;DHT22;9750;48.730;10.294;2023-02-19T10:29:53;10.10;99.20
19232;DHT22;9750;48.730;10.294;2023-02-19T10:32:22;10.20;99.50
19232;DHT22;9750;48.730;10.294;2023-02-19T10:35:10;10.20;99.30
19232;DHT22;9750;48.730;10.294;2023-02-19T10:37:42;10.30;98.90
19232;DHT22;9750;48.730;10.294;2023-02-19T10:40:15;10.20;99.20
19232;DHT22;9750;48.730;10.294;2023-02-19T10:42:45;10.10;98.90
19232;DHT22;9750;48.730;10.294;2023-02-19T10:45:18;10.00;99.20
19232;DHT22;9750;48.730;10.294;2023-02-19T10:47:48;10.00;99.30
19232;DHT22;9750;48.730;10.294;2023-02-19T10:50:21;10.10;99.10
19232;DHT22;9750;48.730;10.294;2023-02-19T10:52:52;10.10;98.10
19232;DHT22;9750;48.730;10.294;2023-02-19T10:55:28;10.10;97.90
19232;DHT22;9750;48.730;10.294;2023-02-19T10:57:56;10.10;98.20
19232;DHT22;9750;48.730;10.294;2023-02-19T11:00:27;10.00;97.80
19232;DHT22;9750;48.730;10.294;2023-02-19T11:03:19;10.10;97.90
19232;DHT22;9750;48.730;10.294;2023-02-19T11:05:53;10.20;97.50
19232;DHT22;9750;48.730;10.294;2023-02-19T11:08:22;10.20;97.30
19232;DHT22;9750;48.730;10.294;2023-02-19T11:10:50;10.20;97.60
19232;DHT22;9750;48.730;10.294;2023-02-19T11:13:23;10.20;97.40
19232;DHT22;9750;48.730;10.294;2023-02-19T11:15:54;10.30;97.40
19232;DHT22;9750;48.730;10.294;2023-02-19T11:18:23;10.30;97.00
19232;DHT22;9750;48.730;10.294;2023-02-19T11:20:53;10.20;96.90
19232;DHT22;9750;48.730;10.294;2023-02-19T11:23:24;10.20;96.90
19232;DHT22;9750;48.730;10.294;2023-02-19T11:25:55;10.20;97.00
19232;DHT22;9750;48.730;10.294;2023-02-19T11:28:29;10.10;96.50
19232;DHT22;9750;48.730;10.294;2023-02-19T11:31:13;10.20;96.50
19232;DHT22;9750;48.730;10.294;2023-02-19T11:33:46;10.30;96.40
19232;DHT22;9750;48.730;10.294;2023-02-19T11:39:40;10.40;96.10
19232;DHT22;9750;48.730;10.294;2023-02-19T11:45:16;10.40;96.40
19232;DHT22;9750;48.730;10.294;2023-02-19T11:48:10;10.40;96.10
19232;DHT22;9750;48.730;10.294;2023-02-19T11:50:50;10.50;95.50
19232;DHT22;9750;48.730;10.294;2023-02-19T11:53:24;10.40;95.30
19232;DHT22;9750;48.730;10.294;2023-02-19T11:56:12;10.50;95.50
19232;DHT22;9750;48.730;10.294;2023-02-19T12:01:50;10.40;95.20
19232;DHT22;9750;48.730;10.294;2023-02-19T12:07:26;10.20;95.50
19232;DHT22;9750;48.730;10.294;2023-02-19T12:10:05;10.30;95.40
19232;DHT22;9750;48.730;10.294;2023-02-19T12:12:46;10.30;95.20
19232;DHT22;9750;48.730;10.294;2023-02-19T12:18:52;10.30;95.50
19232;DHT22;9750;48.730;10.294;2023-02-19T12:21:34;10.30;95.60
19232;DHT22;9750;48.730;10.294;2023-02-19T12:24:24;10.40;95.70
19232;DHT22;9750;48.730;10.294;2023-02-19T12:27:08;10.40;95.70
19232;DHT22;9750;48.730;10.294;2023-02-19T12:29:47;10.30;95.60
19232;DHT22;9750;48.730;10.294;2023-02-19T12:32:40;10.30;96.50
19232;DHT22;9750;48.730;10.294;2023-02-19T12:35:33;10.20;98.80
19232;DHT22;9750;48.730;10.294;2023-02-19T12:38:10;10.20;98.20
19232;DHT22;9750;48.730;10.294;2023-02-19T12:40:53;10.20;98.20
19232;DHT22;9750;48.730;10.294;2023-02-19T12:43:24;10.40;98.20
19232;DHT22;9750;48.730;10.294;2023-02-19T12:45:55;10.40;98.10
19232;DHT22;9750;48.730;10.294;2023-02-19T12:48:28;10.40;97.80
19232;DHT22;9750;48.730;10.294;2023-02-19T12:51:02;10.30;97.80
19232;DHT22;9750;48.730;10.294;2023-02-19T12:53:36;10.40;97.90
19232;DHT22;9750;48.730;10.294;2023-02-19T12:56:11;10.50;98.00
19232;DHT22;9750;48.730;10.294;2023-02-19T12:58:43;10.50;97.20
19232;DHT22;9750;48.730;10.294;2023-02-19T13:01:15;10.70;97.70
19232;DHT22;9750;48.730;10.294;2023-02-19T13:03:47;10.80;97.00
19232;DHT22;9750;48.730;10.294;2023-02-19T13:06:30;10.90;96.30
19232;DHT22;9750;48.730;10.294;2023-02-19T13:09:02;10.80;96.70
19232;DHT22;9750;48.730;10.294;2023-02-19T13:11:37;10.70;97.00
19232;DHT22;9750;48.730;10.294;2023-02-19T13:14:13;10.60;96.80
19232;DHT22;9750;48.730;10.294;2023-02-19T13:16:45;10.50;96.70
19232;DHT22;9750;48.730;10.294;2023-02-19T13:19:14;10.40;96.60
19232;DHT22;9750;48.730;10.294;2023-02-19T13:21:43;10.40;96.30
19232;DHT22;9750;48.730;10.294;2023-02-19T13:24:31;10.30;96.00
19232;DHT22;9750;48.730;10.294;2023-02-19T13:30:08;10.50;96.00
19232;DHT22;9750;48.730;10.294;2023-02-19T13:32:58;10.50;96.20
19232;DHT22;9750;48.730;10.294;2023-02-19T13:35:51;10.50;96.20
19232;DHT22;9750;48.730;10.294;2023-02-19T13:38:22;10.50;95.80
19232;DHT22;9750;48.730;10.294;2023-02-19T13:40:53;10.40;95.90
19232;DHT22;9750;48.730;10.294;2023-02-19T13:43:25;10.50;95.90
19232;DHT22;9750;48.730;10.294;2023-02-19T13:45:55;10.50;95.80
19232;DHT22;9750;48.730;10.294;2023-02-19T13:48:27;10.50;95.20
19232;DHT22;9750;48.730;10.294;2023-02-19T13:54:00;10.60;95.10
19232;DHT22;9750;48.730;10.294;2023-02-19T13:56:38;10.60;94.70
19232;DHT22;9750;48.730;10.294;2023-02-19T13:59:32;10.50;95.50
19232;DHT22;9750;48.730;10.294;2023-02-19T14:04:56;10.50;95.20
19232;DHT22;9750;48.730;10.294;2023-02-19T14:10:51;10.60;94.50
19232;DHT22;9750;48.730;10.294;2023-02-19T14:13:54;10.80;94.60
19232;DHT22;9750;48.730;10.294;2023-02-19T14:19:58;11.00;94.40
19232;DHT22;9750;48.730;10.294;2023-02-19T14:22:48;11.00;94.60
19232;DHT22;9750;48.730;10.294;2023-02-19T14:25:39;11.00;94.00
19232;DHT22;9750;48.730;10.294;2023-02-19T14:28:22;10.90;94.10
19232;DHT22;9750;48.730;10.294;2023-02-19T14:30:54;10.80;94.10
19232;DHT22;9750;48.730;10.294;2023-02-19T14:33:23;10.60;94.10
19232;DHT22;9750;48.730;10.294;2023-02-19T14:35:56;10.30;95.10
19232;DHT22;9750;48.730;10.294;2023-02-19T14:38:28;10.20;95.40
19232;DHT22;9750;48.730;10.294;2023-02-19T14:40:56;10.10;95.70
19232;DHT22;9750;48.730;10.294;2023-02-19T14:43:25;10.10;95.90
19232;DHT22;9750;48.730;10.294;2023-02-19T14:46:16;10.10;96.00
19232;DHT22;9750;48.730;10.294;2023-02-19T14:48:47;10.10;96.00
19232;DHT22;9750;48.730;10.294;2023-02-19T14:51:28;10.10;96.00
19232;DHT22;9750;48.730;10.294;2023-02-19T14:53:57;10.00;96.00
19232;DHT22;9750;48.730;10.294;2023-02-19T14:56:32;10.00;96.20
19232;DHT22;9750;48.730;10.294;2023-02-19T14:59:22;9.90;96.70
19232;DHT22;9750;48.730;10.294;2023-02-19T15:01:54;9.90;96.80
19232;DHT22;9750;48.730;10.294;2023-02-19T15:04:23;9.80;97.10
19232;DHT22;9750;48.730;10.294;2023-02-19T15:06:53;9.80;97.20
19232;DHT22;9750;48.730;10.294;2023-02-19T15:09:30;9.80;96.90
19232;DHT22;9750;48.730;10.294;2023-02-19T15:11:59;9.80;97.20
19232;DHT22;9750;48.730;10.294;2023-02-19T15:14:28;9.90;97.40
19232;DHT22;9750;48.730;10.294;2023-02-19T15:16:58;9.90;97.20
19232;DHT22;9750;48.730;10.294;2023-02-19T15:19:28;9.90;97.50
19232;DHT22;9750;48.730;10.294;2023-02-19T15:21:59;9.90;96.90
19232;DHT22;9750;48.730;10.294;2023-02-19T15:24:27;9.90;97.10
19232;DHT22;9750;48.730;10.294;2023-02-19T15:26:55;9.90;97.10
19232;DHT22;9750;48.730;10.294;2023-02-19T15:29:23;9.80;97.00
19232;DHT22;9750;48.730;10.294;2023-02-19T15:31:53;9.80;97.50
19232;DHT22;9750;48.730;10.294;2023-02-19T15:34:22;9.70;97.40
19232;DHT22;9750;48.730;10.294;2023-02-19T15:36:51;9.60;97.30
19232;DHT22;9750;48.730;10.294;2023-02-19T15:39:22;9.60;97.30
19232;DHT22;9750;48.730;10.294;2023-02-19T15:41:54;9.50;97.40
19232;DHT22;9750;48.730;10.294;2023-02-19T15:44:29;9.50;97.30
19232;DHT22;9750;48.730;10.294;2023-02-19T15:46:59;9.50;97.30
19232;DHT22;9750;48.730;10.294;2023-02-19T15:49:32;9.60;97.30
19232;DHT22;9750;48.730;10.294;2023-02-19T15:52:06;9.50;97.20
19232;DHT22;9750;48.730;10.294;2023-02-19T15:54:41;9.50;97.20
19232;DHT22;9750;48.730;10.294;2023-02-19T15:57:15;9.40;97.30
19232;DHT22;9750;48.730;10.294;2023-02-19T15:59:47;9.40;97.50
19232;DHT22;9750;48.730;10.294;2023-02-19T16:02:17;9.40;97.70
19232;DHT22;9750;48.730;10.294;2023-02-19T16:04:44;9.40;97.50
19232;DHT22;9750;48.730;10.294;2023-02-19T16:07:23;9.40;97.40
19232;DHT22;9750;48.730;10.294;2023-02-19T16:10:11;9.40;97.50
19232;DHT22;9750;48.730;10.294;2023-02-19T16:16:30;9.30;97.50
19232;DHT22;9750;48.730;10.294;2023-02-19T16:19:00;9.30;97.60
19232;DHT22;9750;48.730;10.294;2023-02-19T16:21:28;9.20;97.50
19232;DHT22;9750;48.730;10.294;2023-02-19T16:24:10;9.20;97.60
19232;DHT22;9750;48.730;10.294;2023-02-19T16:26:41;9.20;97.70
19232;DHT22;9750;48.730;10.294;2023-02-19T16:29:31;9.20;97.90
19232;DHT22;9750;48.730;10.294;2023-02-19T16:32:00;9.20;97.60
19232;DHT22;9750;48.730;10.294;2023-02-19T16:34:33;9.20;97.70
19232;DHT22;9750;48.730;10.294;2023-02-19T16:37:30;9.20;97.70
19232;DHT22;9750;48.730;10.294;2023-02-19T16:43:30;9.10;98.10
19232;DHT22;9750;48.730;10.294;2023-02-19T16:46:07;9.10;97.80
19232;DHT22;9750;48.730;10.294;2023-02-19T16:48:34;9.10;97.90
19232;DHT22;9750;48.730;10.294;2023-02-19T16:51:04;9.10;98.00
19232;DHT22;9750;48.730;10.294;2023-02-19T16:53:32;9.10;98.30
19232;DHT22;9750;48.730;10.294;2023-02-19T16:55:59;9.10;98.20
19232;DHT22;9750;48.730;10.294;2023-02-19T16:58:26;9.00;98.00
19232;DHT22;9750;48.730;10.294;2023-02-19T17:00:55;9.00;98.10